Time;durP1;ratioP1;P1;durP2;ratioP2;P2;SDS_P1;SDS_P2;PMS_P1;PMS_P2;Temp;Humidity;BMP_temperature;BMP_pressure;BME280_temperature;BME280_humidity;BME280_pressure;Samples;Min_cycle;Max_cycle;Signal;HPM_P1;HPM_P2
2021/11/15 00:00:56;;;;;;;6.00;1.60;;;;;;;0.08;74.21;100595.53;5022952;28;20057;-77
2021/11/15 00:03:23;;;;;;;6.35;1.60;;;;;;;0.04;74.92;100597.44;5022795;28;20038;-74
2021/11/15 00:05:49;;;;;;;4.57;1.13;;;;;;;0.01;75.09;100599.34;5024681;28;20137;-76
2021/11/15 00:08:15;;;;;;;5.47;1.45;;;;;;;0.00;73.98;100611.78;5016987;28;20081;-76
2021/11/15 00:10:41;;;;;;;5.63;1.65;;;;;;;0.12;74.47;100640.53;5017318;28;20050;-75
2021/11/15 00:13:07;;;;;;;8.40;1.40;;;;;;;-0.07;74.41;100604.97;5017100;28;20052;-78
2021/11/15 00:15:33;;;;;;;10.23;3.58;;;;;;;0.05;72.81;100635.53;5020649;28;20516;-76
2021/11/15 00:18:00;;;;;;;3.95;1.10;;;;;;;0.02;70.25;100631.19;5018352;28;20042;-77
2021/11/15 00:20:27;;;;;;;3.95;1.13;;;;;;;0.03;70.97;100635.56;5015740;28;20384;-78
2021/11/15 00:22:53;;;;;;;4.20;1.20;;;;;;;0.00;70.61;100633.03;5016332;28;20093;-77
2021/11/15 00:25:19;;;;;;;4.28;1.10;;;;;;;0.13;70.80;100644.91;5016000;28;20139;-74
2021/11/15 00:27:45;;;;;;;4.40;1.13;;;;;;;0.06;70.37;100635.44;5016239;28;20046;-77
2021/11/15 00:30:12;;;;;;;4.78;1.20;;;;;;;0.07;69.52;100647.81;5021478;28;20117;-77
2021/11/15 00:32:39;;;;;;;3.28;0.98;;;;;;;0.12;70.85;100651.16;5020097;28;20041;-74
2021/11/15 00:35:08;;;;;;;5.68;1.30;;;;;;;0.12;71.06;100653.81;5019379;28;20045;-78
2021/11/15 00:37:34;;;;;;;4.00;0.98;;;;;;;0.14;71.48;100651.94;5019002;28;20049;-74
2021/11/15 00:40:00;;;;;;;5.45;1.40;;;;;;;0.11;71.55;100668.06;5018414;28;20041;-75
2021/11/15 00:42:26;;;;;;;5.07;1.08;;;;;;;0.14;71.51;100662.59;5019350;28;20054;-74
2021/11/15 00:44:52;;;;;;;4.00;1.00;;;;;;;-0.07;71.68;100658.13;5017198;28;20107;-76
2021/11/15 00:47:18;;;;;;;5.18;1.30;;;;;;;0.02;72.26;100673.72;5017652;28;20054;-76
2021/11/15 00:49:44;;;;;;;3.80;1.08;;;;;;;-0.07;72.47;100674.06;5016322;28;20041;-74
2021/11/15 00:52:10;;;;;;;4.60;1.00;;;;;;;-0.11;71.47;100672.44;5033553;28;20482;-78
2021/11/15 00:54:36;;;;;;;4.32;1.20;;;;;;;-0.35;72.29;100616.66;5016558;28;20038;-76
2021/11/15 00:57:03;;;;;;;3.17;0.93;;;;;;;-0.03;72.39;100678.34;5015907;28;20085;-77
2021/11/15 00:59:31;;;;;;;4.38;0.90;;;;;;;-0.03;70.90;100686.31;5016636;28;20487;-75
2021/11/15 01:01:58;;;;;;;6.10;1.20;;;;;;;-0.15;71.35;100692.94;5016951;28;20073;-77
2021/11/15 01:04:25;;;;;;;5.85;1.00;;;;;;;-0.06;72.06;100691.75;5031504;28;20042;-74
2021/11/15 01:06:55;;;;;;;3.05;0.93;;;;;;;-0.08;72.27;100698.91;5016311;28;20170;-76
2021/11/15 01:09:23;;;;;;;5.22;1.23;;;;;;;-0.04;71.63;100704.06;5015153;28;20049;-75
2021/11/15 01:11:49;;;;;;;5.72;1.02;;;;;;;-0.03;71.67;100705.78;4999398;28;20053;-76
2021/11/15 01:14:15;;;;;;;4.75;1.10;;;;;;;-0.16;71.66;100703.66;5015092;28;20068;-77
2021/11/15 01:16:42;;;;;;;2.67;0.90;;;;;;;-0.41;70.64;100670.00;5015568;28;20523;-77
2021/11/15 01:19:09;;;;;;;3.03;0.90;;;;;;;-0.23;69.43;100704.78;5015195;28;20156;-77
2021/11/15 01:21:35;;;;;;;3.55;0.90;;;;;;;-0.35;70.12;100706.97;5015607;28;20077;-75
2021/11/15 01:24:01;;;;;;;2.25;0.70;;;;;;;-0.28;70.62;100713.81;5015045;28;20464;-75
2021/11/15 01:26:27;;;;;;;3.92;0.85;;;;;;;-0.33;69.69;100721.09;5016203;28;20065;-77
2021/11/15 01:28:53;;;;;;;2.22;0.70;;;;;;;-0.51;69.95;100684.56;5014358;28;20088;-77
2021/11/15 01:31:20;;;;;;;5.22;0.95;;;;;;;-0.33;70.49;100721.09;5015975;28;20184;-77
2021/11/15 01:33:46;;;;;;;3.40;0.77;;;;;;;-0.37;68.50;100713.25;5016917;28;20546;-77
2021/11/15 01:36:12;;;;;;;1.85;0.60;;;;;;;-0.42;66.79;100732.03;5014154;28;20034;-78
2021/11/15 01:38:38;;;;;;;2.53;0.80;;;;;;;-0.37;68.23;100734.53;4998044;28;20054;-76
2021/11/15 01:41:06;;;;;;;0.90;0.40;;;;;;;-0.41;66.38;100728.44;5016247;28;20048;-72
2021/11/15 01:43:32;;;;;;;1.23;0.50;;;;;;;-0.47;66.72;100706.56;5015021;28;20385;-75
2021/11/15 01:45:58;;;;;;;3.85;0.68;;;;;;;-0.37;67.29;100730.06;5016028;28;20148;-77
2021/11/15 01:48:24;;;;;;;0.75;0.40;;;;;;;-0.31;67.99;100737.81;5016174;28;20072;-72
2021/11/15 01:50:50;;;;;;;2.47;0.60;;;;;;;-0.32;66.97;100737.91;5016184;28;20566;-79
2021/11/15 01:53:16;;;;;;;3.85;0.70;;;;;;;-0.35;67.72;100746.84;5014363;28;20045;-77
2021/11/15 01:55:43;;;;;;;1.30;0.50;;;;;;;-0.56;68.94;100708.63;5014952;28;20052;-77
2021/11/15 01:58:11;;;;;;;2.88;0.80;;;;;;;-0.37;68.99;100751.31;5014148;28;20046;-76
2021/11/15 02:00:47;;;;;;;2.00;0.60;;;;;;;-0.39;68.81;100753.19;5031305;28;20475;-78
2021/11/15 02:03:14;;;;;;;2.38;0.57;;;;;;;-0.35;69.42;100749.50;5017152;28;20127;-73
2021/11/15 02:05:42;;;;;;;3.03;0.75;;;;;;;-0.28;71.15;100760.75;5017170;28;20038;-75
2021/11/15 02:08:08;;;;;;;4.47;0.90;;;;;;;-0.26;70.70;100770.44;5018418;28;20095;-75
2021/11/15 02:10:34;;;;;;;2.13;0.70;;;;;;;-0.26;70.95;100769.53;5016331;28;20531;-77
2021/11/15 02:12:59;;;;;;;3.00;0.80;;;;;;;-0.29;70.64;100770.53;5015345;28;20057;-76
2021/11/15 02:15:25;;;;;;;2.65;0.77;;;;;;;-0.33;71.80;100768.00;5016590;28;20129;-76
2021/11/15 02:17:53;;;;;;;2.70;0.70;;;;;;;-0.26;71.24;100781.06;4998961;28;20069;-76
2021/11/15 02:20:20;;;;;;;1.67;0.55;;;;;;;-0.34;71.99;100764.50;5018141;28;20574;-74
2021/11/15 02:22:47;;;;;;;2.42;0.70;;;;;;;-0.31;71.28;100785.66;5019675;28;20148;-77
2021/11/15 02:25:18;;;;;;;5.00;0.80;;;;;;;-0.30;72.30;100795.34;5019501;28;20049;-75
2021/11/15 02:27:44;;;;;;;2.60;0.73;;;;;;;-0.42;73.24;100782.50;5024246;28;20108;-75
2021/11/15 02:30:19;;;;;;;2.20;0.70;;;;;;;-0.32;74.03;100794.53;5005052;28;20042;-78
2021/11/15 02:32:46;;;;;;;3.40;0.93;;;;;;;-0.38;74.23;100789.44;5019993;28;20521;-74
2021/11/15 02:35:12;;;;;;;4.00;0.80;;;;;;;-0.27;74.16;100805.00;5021401;28;20088;-77
2021/11/15 02:37:39;;;;;;;2.47;0.80;;;;;;;-0.45;74.47;100779.94;5019009;28;20546;-76
2021/11/15 02:40:07;;;;;;;2.47;0.70;;;;;;;-0.41;74.33;100800.16;5021016;28;20061;-77
2021/11/15 02:42:33;;;;;;;2.92;0.80;;;;;;;-0.40;75.41;100804.59;5020333;28;20046;-78
2021/11/15 02:44:59;;;;;;;4.22;1.05;;;;;;;-0.41;76.39;100813.44;5019176;28;20134;-77
2021/11/15 02:47:25;;;;;;;20.10;5.07;;;;;;;-0.43;76.07;100820.63;5020681;28;20050;-76
2021/11/15 02:49:50;;;;;;;48.17;14.52;;;;;;;-0.44;76.13;100816.19;5005392;28;20129;-77
2021/11/15 02:52:19;;;;;;;25.25;9.05;;;;;;;-0.53;76.07;100827.16;5023038;28;20045;-78
2021/11/15 02:54:46;;;;;;;24.83;9.85;;;;;;;-0.61;75.07;100813.28;5021915;28;20095;-76
2021/11/15 02:57:17;;;;;;;9.30;2.78;;;;;;;-0.51;74.58;100822.69;5021272;28;20049;-76
2021/11/15 02:59:43;;;;;;;31.60;7.15;;;;;;;-0.61;73.83;100810.63;5035917;28;20068;-75
2021/11/15 03:02:09;;;;;;;8.50;2.00;;;;;;;-0.50;74.89;100819.09;5004918;28;20184;-76
2021/11/15 03:04:35;;;;;;;5.60;1.45;;;;;;;-0.45;74.87;100833.06;4988678;28;20074;-77
2021/11/15 03:07:00;;;;;;;5.82;1.30;;;;;;;-0.48;75.08;100825.19;5021263;28;20052;-75
2021/11/15 03:09:26;;;;;;;3.10;0.77;;;;;;;-0.54;74.49;100822.78;5020213;28;20106;-76
2021/11/15 03:11:53;;;;;;;3.63;0.82;;;;;;;-0.46;74.82;100836.66;5024932;28;20098;-76
2021/11/15 03:14:19;;;;;;;3.17;1.00;;;;;;;-0.52;72.81;100823.56;5019318;28;20424;-75
2021/11/15 03:16:45;;;;;;;1.45;0.55;;;;;;;-0.58;73.62;100815.84;5008002;28;20049;-74
2021/11/15 03:19:11;;;;;;;7.35;1.25;;;;;;;-0.42;74.41;100840.94;5027764;28;20046;-79
2021/11/15 03:21:37;;;;;;;3.03;0.80;;;;;;;-0.41;73.51;100847.13;5026105;28;20056;-78
2021/11/15 03:24:03;;;;;;;3.53;0.80;;;;;;;-0.45;73.85;100838.38;5025520;28;20118;-78
2021/11/15 03:26:29;;;;;;;3.25;1.15;;;;;;;-0.39;74.29;100854.13;5007751;28;20054;-75
2021/11/15 03:28:56;;;;;;;3.58;0.70;;;;;;;-0.37;73.26;100862.88;5027227;28;20046;-76
2021/11/15 03:31:27;;;;;;;3.78;1.00;;;;;;;-0.37;74.20;100852.25;5019215;28;20100;-77
2021/11/15 03:33:58;;;;;;;2.38;0.82;;;;;;;-0.43;71.17;100851.63;5006409;28;20092;-77
2021/11/15 03:36:24;;;;;;;6.43;1.83;;;;;;;-0.49;71.26;100853.56;5023870;28;20053;-77
2021/11/15 03:38:54;;;;;;;5.05;1.10;;;;;;;-0.67;71.17;100827.63;5020822;28;20069;-77
2021/11/15 03:41:21;;;;;;;;;;;;;;;-0.46;69.46;100868.53;5022207;28;20145;-74
2021/11/15 03:43:47;;;;;;;4.07;0.70;;;;;;;-0.46;70.22;100868.53;5021547;28;20001;-79
2021/11/15 03:46:14;;;;;;;4.25;0.73;;;;;;;-0.42;70.92;100870.16;5005390;28;20064;-78
2021/11/15 03:48:40;;;;;;;1.83;0.57;;;;;;;-0.61;71.57;100837.19;5021254;28;20369;-77
2021/11/15 03:51:06;;;;;;;3.25;0.80;;;;;;;-0.63;72.20;100839.00;5002478;28;20061;-79
2021/11/15 03:53:35;;;;;;;3.88;0.90;;;;;;;-0.58;72.53;100847.72;5003165;28;20073;-80
2021/11/15 03:56:04;;;;;;;5.72;1.30;;;;;;;-0.47;73.40;100872.13;5017890;28;20419;-74
2021/11/15 03:58:30;;;;;;;2.60;0.80;;;;;;;-0.41;73.84;100877.19;4998381;28;20065;-74
2021/11/15 04:00:57;;;;;;;4.13;0.90;;;;;;;-0.44;74.24;100869.34;5016866;28;20472;-77
2021/11/15 04:03:34;;;;;;;5.43;1.08;;;;;;;-0.70;74.82;100837.47;4997686;28;20528;-74
2021/11/15 04:06:04;;;;;;;4.00;1.05;;;;;;;-0.49;74.71;100887.22;5012653;28;20069;-75
2021/11/15 04:08:31;;;;;;;3.40;0.85;;;;;;;-0.50;74.60;100891.66;5015327;28;20172;-71
2021/11/15 04:10:58;;;;;;;3.72;1.00;;;;;;;-0.45;75.51;100896.81;5013408;28;20111;-72
2021/11/15 04:13:44;;;;;;;3.72;0.90;;;;;;;-0.47;75.95;100901.34;5013847;28;20054;-77
2021/11/15 04:16:12;;;;;;;3.22;0.82;;;;;;;-0.46;76.61;100905.72;5013903;28;20044;-77
2021/11/15 04:18:48;;;;;;;4.97;1.33;;;;;;;-0.47;77.11;100900.47;4981330;28;20038;-75
2021/11/15 04:21:14;;;;;;;4.95;1.02;;;;;;;-0.45;77.16;100902.13;5009598;28;20046;-77
2021/11/15 04:23:40;;;;;;;3.80;1.05;;;;;;;-0.43;77.67;100916.25;5001918;28;20046;-73
2021/11/15 04:26:06;;;;;;;4.72;0.95;;;;;;;-0.47;78.69;100938.53;4997617;28;20177;-74
2021/11/15 04:28:32;;;;;;;5.25;1.20;;;;;;;-0.64;78.85;100917.81;5008897;28;20056;-73
2021/11/15 04:30:58;;;;;;;6.00;1.45;;;;;;;-0.48;79.36;100931.44;4983047;28;20449;-76
2021/11/15 04:33:24;;;;;;;6.22;1.20;;;;;;;-0.55;79.48;100933.47;4981489;28;20042;-71
2021/11/15 04:35:52;;;;;;;4.07;1.00;;;;;;;-0.50;80.09;100941.28;4987197;28;20041;-71
2021/11/15 04:38:20;;;;;;;4.85;1.15;;;;;;;-0.44;80.04;100962.31;4978304;28;20053;-71
2021/11/15 04:40:46;;;;;;;4.03;1.15;;;;;;;-0.54;80.65;100955.56;4991931;28;20058;-72
2021/11/15 04:43:12;;;;;;;6.22;1.27;;;;;;;-0.60;80.90;100961.06;5010262;28;20187;-71
2021/11/15 04:45:38;;;;;;;5.00;1.23;;;;;;;-0.77;81.93;100970.44;4994565;28;20048;-71
2021/11/15 04:48:04;;;;;;;3.17;0.82;;;;;;;-0.74;80.71;100996.88;5011333;28;20049;-70
2021/11/15 04:50:30;;;;;;;3.22;0.80;;;;;;;-0.79;80.48;100993.50;5010852;28;20085;-68
2021/11/15 04:52:57;;;;;;;5.10;1.10;;;;;;;-0.89;81.35;100992.03;5012309;28;20144;-71
2021/11/15 04:55:24;;;;;;;2.92;0.70;;;;;;;-1.03;81.48;100999.53;5010879;28;20042;-71
2021/11/15 04:57:51;;;;;;;2.42;0.70;;;;;;;-1.09;81.67;101010.34;4978494;28;20498;-71
2021/11/15 05:00:23;;;;;;;3.38;0.82;;;;;;;-1.11;81.87;101001.53;5011208;28;20140;-71
2021/11/15 05:02:49;;;;;;;3.58;0.70;;;;;;;-1.12;82.01;101005.09;5010925;28;20549;-71
2021/11/15 05:05:15;;;;;;;2.53;0.70;;;;;;;-1.04;81.18;101014.56;5027476;28;20061;-70
2021/11/15 05:07:42;;;;;;;2.22;0.75;;;;;;;-1.18;80.77;100995.53;5012413;28;20057;-70
2021/11/15 05:10:08;;;;;;;3.08;0.88;;;;;;;-1.09;79.99;101010.34;4994779;28;20050;-71
2021/11/15 05:12:35;;;;;;;4.88;0.88;;;;;;;-1.08;79.38;101017.38;4994539;28;20518;-70
2021/11/15 05:15:07;;;;;;;7.55;1.02;;;;;;;-1.30;79.72;100988.78;5010701;28;20061;-71
2021/11/15 05:17:33;;;;;;;4.72;0.80;;;;;;;-1.31;78.98;101005.63;5011362;28;20137;-70
2021/11/15 05:19:58;;;;;;;4.57;1.13;;;;;;;-1.18;77.05;101022.06;5010651;28;20057;-72
2021/11/15 05:22:24;;;;;;;3.95;0.73;;;;;;;-1.27;73.89;100999.31;5010050;28;20057;-70
2021/11/15 05:24:50;;;;;;;3.22;0.80;;;;;;;-1.23;73.08;100997.47;5010425;28;20084;-71
2021/11/15 05:27:16;;;;;;;3.35;0.73;;;;;;;-0.88;71.17;101046.84;5009995;28;20041;-72
2021/11/15 05:29:42;;;;;;;2.97;0.70;;;;;;;-0.91;70.10;101040.78;4994163;28;20049;-72
2021/11/15 05:32:08;;;;;;;2.40;0.73;;;;;;;-0.96;71.12;101022.31;4993736;28;20054;-71
2021/11/15 05:34:34;;;;;;;6.25;1.10;;;;;;;-0.74;70.77;101057.94;5010097;28;20060;-72
2021/11/15 05:37:00;;;;;;;4.55;1.10;;;;;;;-0.98;69.86;101002.94;4993820;28;20042;-71
2021/11/15 05:39:25;;;;;;;5.95;1.38;;;;;;;-1.11;71.09;100999.75;5010454;28;20104;-72
2021/11/15 05:41:51;;;;;;;7.03;1.05;;;;;;;-0.65;70.66;101074.53;4977789;28;20038;-71
2021/11/15 05:44:17;;;;;;;4.85;0.95;;;;;;;-0.67;70.07;101076.34;4993752;28;20049;-72
2021/11/15 05:46:44;;;;;;;3.53;0.70;;;;;;;-0.82;70.16;101067.91;4961772;28;20096;-71
2021/11/15 05:49:10;;;;;;;4.32;0.95;;;;;;;-1.06;69.89;101021.72;4977816;28;20428;-72
2021/11/15 05:51:36;;;;;;;4.03;0.93;;;;;;;-0.73;67.86;101077.41;4994203;28;20046;-71
2021/11/15 05:54:02;;;;;;;4.47;1.00;;;;;;;-0.74;66.98;101075.66;5010142;28;20562;-72
2021/11/15 05:56:27;;;;;;;3.22;0.90;;;;;;;-0.68;67.03;101088.75;4994271;28;20096;-72
2021/11/15 05:58:53;;;;;;;3.60;1.00;;;;;;;-0.55;66.64;101102.53;4977698;28;20046;-71
2021/11/15 06:01:19;;;;;;;4.53;1.02;;;;;;;-0.62;65.85;101085.03;4994545;28;20499;-72
2021/11/15 06:03:45;;;;;;;3.70;0.82;;;;;;;-0.61;66.70;101100.09;4977676;28;20541;-70
2021/11/15 06:06:11;;;;;;;4.38;0.82;;;;;;;-0.74;66.91;101080.97;4994403;28;20053;-71
2021/11/15 06:08:37;;;;;;;2.63;0.77;;;;;;;-0.49;68.08;101107.69;5010575;28;20066;-72
2021/11/15 06:11:03;;;;;;;3.90;0.88;;;;;;;-0.49;67.29;101115.66;4978222;28;20038;-71
2021/11/15 06:13:29;;;;;;;4.40;1.00;;;;;;;-0.74;66.23;101071.22;4977687;28;20042;-71
2021/11/15 06:15:56;;;;;;;4.03;0.85;;;;;;;-0.48;65.17;101104.09;5011568;28;20056;-73
2021/11/15 06:18:21;;;;;;;3.53;0.70;;;;;;;-0.33;65.49;101124.03;4981118;28;20073;-73
2021/11/15 06:20:47;;;;;;;5.53;0.93;;;;;;;-0.23;63.17;101119.31;5013323;28;20037;-70
2021/11/15 06:23:13;;;;;;;3.97;0.80;;;;;;;-0.26;63.80;101121.16;5012640;28;20061;-72
2021/11/15 06:25:39;;;;;;;3.65;0.90;;;;;;;-0.27;63.14;101116.75;4963596;28;20053;-71
2021/11/15 06:28:06;;;;;;;5.88;1.48;;;;;;;-0.25;64.21;101117.59;4980802;28;20333;-71
2021/11/15 06:30:32;;;;;;;2.75;0.80;;;;;;;-0.18;63.65;101112.06;5013642;28;20048;-71
2021/11/15 06:32:58;;;;;;;5.47;1.10;;;;;;;-0.28;64.36;101091.09;4996396;28;20128;-71
2021/11/15 06:35:27;;;;;;;3.88;0.80;;;;;;;0.01;63.49;101129.19;4996151;28;20046;-71
2021/11/15 06:37:54;;;;;;;5.38;1.10;;;;;;;0.00;64.45;101132.78;4981001;28;20065;-71
2021/11/15 06:40:20;;;;;;;4.35;1.10;;;;;;;0.02;64.38;101125.63;5029006;28;20464;-72
2021/11/15 06:42:46;;;;;;;4.38;1.10;;;;;;;0.04;64.65;101149.47;4996413;28;20129;-72
2021/11/15 06:45:13;;;;;;;5.28;1.20;;;;;;;0.07;65.71;101150.25;4979924;28;20046;-72
2021/11/15 06:47:41;;;;;;;3.95;1.00;;;;;;;0.10;66.36;101150.16;4995559;28;20042;-71
2021/11/15 06:50:08;;;;;;;4.85;1.10;;;;;;;0.14;65.60;101151.81;5014408;28;20104;-71
2021/11/15 06:52:35;;;;;;;4.97;1.23;;;;;;;0.12;65.62;101169.63;5028808;28;20046;-70
2021/11/15 06:55:01;;;;;;;4.90;1.20;;;;;;;0.08;67.10;101165.31;4998252;28;20061;-72
2021/11/15 06:57:29;;;;;;;5.93;1.48;;;;;;;0.08;66.29;101170.63;4982947;28;20041;-72
2021/11/15 06:59:56;;;;;;;5.63;1.40;;;;;;;0.15;66.63;101174.84;4962732;28;20120;-71
2021/11/15 07:02:22;;;;;;;6.45;1.50;;;;;;;0.20;66.88;101177.34;4978625;28;20046;-71
2021/11/15 07:04:48;;;;;;;7.93;1.92;;;;;;;-0.04;66.59;101158.59;5009848;28;20070;-71
2021/11/15 07:07:16;;;;;;;7.55;1.92;;;;;;;0.13;66.59;101174.00;5011519;28;20384;-71
2021/11/15 07:09:45;;;;;;;6.70;1.88;;;;;;;0.12;67.08;101193.53;4996991;28;20099;-70
2021/11/15 07:12:12;;;;;;;5.32;1.50;;;;;;;0.10;67.58;101194.50;5012852;28;20448;-71
2021/11/15 07:14:38;;;;;;;8.10;1.80;;;;;;;0.02;67.75;101177.91;5014050;28;20049;-71
2021/11/15 07:17:05;;;;;;;6.80;1.88;;;;;;;-0.08;68.35;101182.63;5012334;28;20081;-72
2021/11/15 07:19:30;;;;;;;6.00;1.65;;;;;;;0.03;68.15;101196.47;4996677;28;20072;-74
2021/11/15 07:21:56;;;;;;;7.18;2.00;;;;;;;-0.03;68.39;101205.50;5014297;28;20107;-71
2021/11/15 07:24:22;;;;;;;12.40;2.25;;;;;;;0.13;68.62;101213.03;4996643;28;20415;-71
2021/11/15 07:26:49;;;;;;;5.90;1.67;;;;;;;-0.02;67.59;101214.34;4963729;28;20060;-71
2021/11/15 07:29:16;;;;;;;6.20;1.40;;;;;;;0.03;67.40;101228.38;4980291;28;20052;-72
2021/11/15 07:31:43;;;;;;;6.75;1.67;;;;;;;0.00;68.15;101228.47;4980451;28;20168;-72
2021/11/15 07:34:09;;;;;;;8.43;2.15;;;;;;;0.11;68.36;101231.69;4996986;28;20199;-71
2021/11/15 07:36:35;;;;;;;6.78;1.92;;;;;;;-0.02;68.15;101222.31;5012542;28;20511;-71
2021/11/15 07:39:03;;;;;;;5.88;1.45;;;;;;;0.06;67.43;101249.56;5012366;28;20069;-71
2021/11/15 07:41:29;;;;;;;5.50;1.35;;;;;;;0.04;67.67;101243.44;4980016;28;20490;-71
2021/11/15 07:43:55;;;;;;;5.65;1.55;;;;;;;0.09;69.13;101276.06;5012739;28;20092;-71
2021/11/15 07:46:21;;;;;;;6.00;1.60;;;;;;;0.11;68.28;101282.22;5013705;28;20065;-71
2021/11/15 07:48:49;;;;;;;5.47;1.48;;;;;;;0.07;69.06;101285.84;4996140;28;20053;-73
2021/11/15 07:51:16;;;;;;;12.60;1.60;;;;;;;-0.05;68.35;101257.84;4995899;28;20118;-72
2021/11/15 07:53:42;;;;;;;6.95;1.50;;;;;;;0.03;68.35;101292.16;4996826;28;20034;-72
2021/11/15 07:56:10;;;;;;;6.60;1.58;;;;;;;0.09;67.70;101302.63;5012931;28;20045;-72
2021/11/15 07:58:36;;;;;;;6.20;1.80;;;;;;;0.12;68.57;101302.56;5013641;28;20057;-72
2021/11/15 08:01:03;;;;;;;5.93;1.50;;;;;;;-0.15;67.92;101250.16;5000576;28;20072;-72
2021/11/15 08:03:29;;;;;;;5.65;1.10;;;;;;;0.19;66.18;101309.44;5018403;28;20065;-71
2021/11/15 08:05:55;;;;;;;5.45;1.40;;;;;;;-0.01;66.99;101301.16;5016124;28;20072;-71
2021/11/15 08:08:21;;;;;;;5.88;1.20;;;;;;;0.14;66.16;101310.47;4982718;28;20492;-72
2021/11/15 08:10:49;;;;;;;4.07;1.20;;;;;;;0.20;65.98;101329.78;4981867;28;20049;-71
2021/11/15 08:13:15;;;;;;;5.45;1.40;;;;;;;0.12;66.77;101318.50;4998499;28;20038;-71
2021/11/15 08:15:41;;;;;;;7.25;1.30;;;;;;;0.04;68.00;101314.31;4981069;28;20716;-71
2021/11/15 08:18:07;;;;;;;4.72;1.27;;;;;;;-0.13;68.12;101302.38;5012053;28;20045;-71
2021/11/15 08:20:37;;;;;;;7.03;1.95;;;;;;;0.03;67.90;101297.50;4996475;28;20392;-72
2021/11/15 08:23:06;;;;;;;5.95;1.60;;;;;;;0.23;66.74;101340.34;5013146;28;20050;-72
2021/11/15 08:26:07;;;;;;;8.48;1.80;;;;;;;0.22;67.76;101351.91;4978439;28;20054;-72
2021/11/15 08:28:33;;;;;;;7.05;1.98;;;;;;;0.29;67.22;101347.25;4995079;28;20042;-72
2021/11/15 08:31:00;;;;;;;5.65;1.58;;;;;;;0.41;66.24;101346.06;4978648;28;20075;-72
2021/11/15 08:33:28;;;;;;;14.23;2.95;;;;;;;0.47;66.46;101356.50;4995120;28;20119;-73
2021/11/15 08:35:55;;;;;;;8.55;1.85;;;;;;;0.43;66.43;101341.53;4995025;28;20050;-72
2021/11/15 08:38:36;;;;;;;6.63;1.60;;;;;;;0.35;65.90;101352.41;4994691;28;20463;-72
2021/11/15 08:41:02;;;;;;;5.97;1.52;;;;;;;0.27;65.93;101358.88;4995022;28;20104;-71
2021/11/15 08:43:28;;;;;;;9.10;1.85;;;;;;;0.29;64.78;101335.75;4994641;28;20439;-72
2021/11/15 08:45:53;;;;;;;7.50;2.00;;;;;;;0.49;64.42;101360.00;5012588;28;20049;-71
2021/11/15 08:48:20;;;;;;;8.98;1.73;;;;;;;0.61;63.93;101375.59;5010807;28;20432;-71
2021/11/15 08:50:46;;;;;;;9.50;1.60;;;;;;;0.67;64.70;101375.41;4994826;28;20080;-72
2021/11/15 08:53:12;;;;;;;8.07;1.92;;;;;;;0.69;65.90;101373.56;5012362;28;20042;-71
2021/11/15 08:55:38;;;;;;;6.13;1.75;;;;;;;0.57;65.61;101379.25;4996404;28;20534;-72
2021/11/15 08:58:04;;;;;;;6.47;1.30;;;;;;;0.53;64.70;101390.06;4979642;28;20040;-71
2021/11/15 09:00:30;;;;;;;4.65;1.30;;;;;;;0.55;64.98;101391.75;4978826;28;20050;-71
2021/11/15 09:02:56;;;;;;;10.18;2.00;;;;;;;0.47;65.03;101391.09;5011353;28;20079;-72
2021/11/15 09:05:23;;;;;;;7.82;1.83;;;;;;;0.15;65.48;101355.66;5010641;28;20141;-70
2021/11/15 09:07:50;;;;;;;10.18;1.98;;;;;;;0.36;65.47;101409.13;5011215;28;20170;-71
2021/11/15 09:10:16;;;;;;;6.45;1.42;;;;;;;0.37;65.65;101413.56;5011193;28;20057;-72
2021/11/15 09:12:43;;;;;;;16.70;2.25;;;;;;;0.19;66.20;101383.91;5011485;28;20041;-72
2021/11/15 09:15:11;;;;;;;6.65;2.05;;;;;;;0.53;64.63;101436.16;5011171;28;20089;-71
2021/11/15 09:17:39;;;;;;;6.72;1.40;;;;;;;0.45;63.72;101430.19;4995939;28;20137;-71
2021/11/15 09:20:06;;;;;;;9.95;1.65;;;;;;;0.56;64.16;101430.75;4995407;28;20100;-71
2021/11/15 09:22:32;;;;;;;5.95;1.60;;;;;;;0.59;63.94;101428.00;4979345;28;20045;-70
2021/11/15 09:24:58;;;;;;;5.13;1.50;;;;;;;0.55;64.56;101422.78;5011459;28;20057;-73
2021/11/15 09:27:26;;;;;;;6.93;1.50;;;;;;;0.55;64.51;101426.34;4978416;28;20117;-72
2021/11/15 09:29:53;;;;;;;7.35;1.52;;;;;;;0.60;66.14;101440.38;5010879;28;20455;-72
2021/11/15 09:32:20;;;;;;;6.93;1.83;;;;;;;0.36;65.95;101410.00;5011296;28;20496;-71
2021/11/15 09:34:46;;;;;;;10.48;2.17;;;;;;;0.62;66.77;101441.22;5010120;28;20041;-72
2021/11/15 09:37:13;;;;;;;8.43;2.40;;;;;;;0.30;66.42;101401.34;5011495;28;20071;-72
2021/11/15 09:39:43;;;;;;;10.68;2.38;;;;;;;0.61;67.63;101433.28;4993539;28;20153;-72
2021/11/15 09:42:10;;;;;;;9.30;2.47;;;;;;;0.67;66.67;101438.44;5011175;28;20592;-71
2021/11/15 09:44:36;;;;;;;8.23;2.03;;;;;;;0.76;65.19;101439.94;5009438;28;20407;-71
2021/11/15 09:47:05;;;;;;;6.53;2.10;;;;;;;2.51;61.83;101451.94;4961363;28;20049;-71
2021/11/15 09:49:31;;;;;;;5.32;1.60;;;;;;;2.78;56.68;101398.44;4993321;28;20073;-73
2021/11/15 09:51:57;;;;;;;8.30;2.13;;;;;;;2.40;59.15;101446.13;4977102;28;20136;-71
2021/11/15 09:54:23;;;;;;;8.35;1.75;;;;;;;2.28;60.07;101446.59;4993847;28;20046;-72
2021/11/15 09:56:50;;;;;;;7.00;1.90;;;;;;;1.88;61.70;101454.16;4993110;28;20096;-72
2021/11/15 09:59:17;;;;;;;7.85;1.90;;;;;;;1.85;62.32;101459.59;4993220;28;20129;-71
2021/11/15 10:01:50;;;;;;;6.85;1.67;;;;;;;1.50;62.01;101428.78;5009058;28;20088;-71
2021/11/15 10:04:18;;;;;;;9.50;2.20;;;;;;;1.93;62.02;101448.66;5011247;28;20089;-72
2021/11/15 10:06:46;;;;;;;12.50;2.63;;;;;;;4.80;53.62;101446.16;5011425;28;20392;-71
2021/11/15 10:09:12;;;;;;;8.40;1.67;;;;;;;3.39;56.47;101465.53;5011254;28;20124;-71
2021/11/15 10:11:44;;;;;;;9.43;2.20;;;;;;;2.74;58.07;101460.91;5010641;28;20472;-72
2021/11/15 10:14:12;;;;;;;10.23;1.75;;;;;;;2.32;59.19;101475.75;4992931;28;20045;-70
2021/11/15 10:16:38;;;;;;;8.02;1.92;;;;;;;1.78;61.53;101483.84;5009656;28;20423;-70
2021/11/15 10:19:09;;;;;;;7.25;1.80;;;;;;;1.55;60.40;101477.47;4993115;28;20397;-71
2021/11/15 10:21:40;;;;;;;8.02;1.80;;;;;;;1.66;60.56;101485.97;5009646;28;20045;-71
2021/11/15 10:24:11;;;;;;;15.45;2.47;;;;;;;1.68;61.54;101489.47;4993295;28;20037;-70
2021/11/15 10:26:41;;;;;;;10.75;2.67;;;;;;;2.10;60.25;101491.63;4992834;28;20096;-71
2021/11/15 10:29:16;;;;;;;8.48;2.60;;;;;;;4.39;54.68;101491.72;5009398;28;20060;-70
2021/11/15 10:31:53;;;;;;;6.05;1.80;;;;;;;3.20;56.42;101491.25;5009283;28;20049;-70
2021/11/15 10:34:37;;;;;;;22.20;3.65;;;;;;;2.40;58.45;101478.16;5010658;28;20119;-73
2021/11/15 10:37:14;;;;;;;7.85;1.88;;;;;;;2.02;59.51;101503.50;5009421;28;20129;-71
2021/11/15 10:39:53;;;;;;;7.60;1.60;;;;;;;1.70;61.27;101502.75;5009453;28;20066;-70
2021/11/15 10:42:20;;;;;;;7.43;2.17;;;;;;;1.41;61.81;101491.22;4980542;28;20064;-71
2021/11/15 10:44:56;;;;;;;8.77;2.00;;;;;;;1.47;61.85;101511.47;4996873;28;20149;-71
2021/11/15 10:47:32;;;;;;;9.73;1.90;;;;;;;1.31;62.66;101510.19;5012868;28;20099;-71
2021/11/15 10:50:10;;;;;;;18.85;2.55;;;;;;;1.06;62.80;101486.97;5013079;28;20535;-70
2021/11/15 10:52:38;;;;;;;11.48;1.85;;;;;;;1.17;62.19;101498.19;5013147;28;20080;-71
2021/11/15 10:55:07;;;;;;;12.32;2.28;;;;;;;1.05;63.03;101481.69;4996773;28;20058;-71
2021/11/15 10:57:43;;;;;;;10.10;2.40;;;;;;;1.13;63.77;101512.50;5012639;28;20215;-70
2021/11/15 11:00:19;;;;;;;16.13;2.78;;;;;;;1.01;63.98;101531.50;4980237;28;20546;-71
2021/11/15 11:02:48;;;;;;;8.48;1.85;;;;;;;1.06;63.34;101532.25;4996690;28;20050;-71
2021/11/15 11:05:20;;;;;;;30.58;2.83;;;;;;;0.93;64.29;101533.50;4996464;28;20049;-70
2021/11/15 11:07:49;;;;;;;8.30;2.60;;;;;;;1.00;63.95;101540.41;4996555;28;20046;-71
2021/11/15 11:10:19;;;;;;;13.13;3.90;;;;;;;1.03;63.23;101519.03;4980766;28;20076;-71
2021/11/15 11:12:59;;;;;;;10.75;2.60;;;;;;;1.08;63.52;101530.41;5013016;28;20064;-71
2021/11/15 11:15:39;;;;;;;8.82;1.98;;;;;;;0.96;63.52;101530.75;4996913;28;20523;-71
2021/11/15 11:26:32;;;;;;;11.05;1.83;;;;;;;0.80;62.31;101509.00;5014008;28;20054;-72
2021/11/15 11:29:01;;;;;;;13.07;1.77;;;;;;;1.00;62.39;101548.41;5014827;28;20042;-71
2021/11/15 11:31:29;;;;;;;11.23;1.80;;;;;;;0.96;61.85;101541.41;4980327;28;20112;-71
2021/11/15 11:33:55;;;;;;;9.25;1.35;;;;;;;1.23;61.16;101546.84;5012850;28;20049;-71
2021/11/15 11:36:21;;;;;;;6.72;1.85;;;;;;;1.11;60.63;101506.34;5013496;28;20041;-70
2021/11/15 11:38:48;;;;;;;6.18;1.40;;;;;;;1.11;60.73;101545.44;5012416;28;20119;-71